sensor_id;sensor_type;location;lat;lon;timestamp;temperature;humidity
3504;DHT22;1766;53.490;10.174;2023-08-12T00:01:13;27.20;53.50
3504;DHT22;1766;53.490;10.174;2023-08-12T00:03:15;27.20;53.40
3504;DHT22;1766;53.490;10.174;2023-08-12T00:05:17;27.20;53.60
3504;DHT22;1766;53.490;10.174;2023-08-12T00:07:19;27.20;53.60
3504;DHT22;1766;53.490;10.174;2023-08-12T00:09:21;27.20;53.60
3504;DHT22;1766;53.490;10.174;2023-08-12T00:11:24;27.20;53.60
3504;DHT22;1766;53.490;10.174;2023-08-12T00:13:26;27.10;53.50
3504;DHT22;1766;53.490;10.174;2023-08-12T00:15:28;27.10;53.50
3504;DHT22;1766;53.490;10.174;2023-08-12T00:17:30;27.20;53.60
3504;DHT22;1766;53.490;10.174;2023-08-12T00:21:43;27.20;54.00
3504;DHT22;1766;53.490;10.174;2023-08-12T00:23:45;27.20;53.70
3504;DHT22;1766;53.490;10.174;2023-08-12T00:25:49;27.20;53.70
3504;DHT22;1766;53.490;10.174;2023-08-12T00:27:52;27.20;53.90
3504;DHT22;1766;53.490;10.174;2023-08-12T00:29:54;27.10;53.70
3504;DHT22;1766;53.490;10.174;2023-08-12T00:38:28;27.00;54.10
3504;DHT22;1766;53.490;10.174;2023-08-12T00:40:30;27.00;53.90
3504;DHT22;1766;53.490;10.174;2023-08-12T00:42:32;27.10;53.90
3504;DHT22;1766;53.490;10.174;2023-08-12T00:44:35;27.00;53.90
3504;DHT22;1766;53.490;10.174;2023-08-12T00:46:38;27.00;53.80
3504;DHT22;1766;53.490;10.174;2023-08-12T00:48:42;27.00;54.10
3504;DHT22;1766;53.490;10.174;2023-08-12T00:50:45;26.90;53.90
3504;DHT22;1766;53.490;10.174;2023-08-12T00:52:47;26.90;54.10
3504;DHT22;1766;53.490;10.174;2023-08-12T00:54:49;26.90;54.20
3504;DHT22;1766;53.490;10.174;2023-08-12T00:56:53;26.90;54.10
3504;DHT22;1766;53.490;10.174;2023-08-12T00:58:56;26.80;54.10
3504;DHT22;1766;53.490;10.174;2023-08-12T01:00:59;26.80;54.30
3504;DHT22;1766;53.490;10.174;2023-08-12T01:03:01;26.80;54.20
3504;DHT22;1766;53.490;10.174;2023-08-12T01:05:04;26.80;54.10
3504;DHT22;1766;53.490;10.174;2023-08-12T01:07:06;26.70;54.30
3504;DHT22;1766;53.490;10.174;2023-08-12T01:09:08;26.70;54.20
3504;DHT22;1766;53.490;10.174;2023-08-12T01:11:14;26.70;54.40
3504;DHT22;1766;53.490;10.174;2023-08-12T01:13:32;26.70;54.50
3504;DHT22;1766;53.490;10.174;2023-08-12T01:17:47;26.60;54.60
3504;DHT22;1766;53.490;10.174;2023-08-12T01:19:52;26.60;54.60
3504;DHT22;1766;53.490;10.174;2023-08-12T01:21:55;26.60;54.50
3504;DHT22;1766;53.490;10.174;2023-08-12T01:24:02;26.60;54.60
3504;DHT22;1766;53.490;10.174;2023-08-12T01:26:04;26.60;54.70
3504;DHT22;1766;53.490;10.174;2023-08-12T01:28:06;26.50;54.40
3504;DHT22;1766;53.490;10.174;2023-08-12T01:34:36;26.40;55.00
3504;DHT22;1766;53.490;10.174;2023-08-12T01:36:45;26.40;55.10
3504;DHT22;1766;53.490;10.174;2023-08-12T01:38:50;26.40;55.10
3504;DHT22;1766;53.490;10.174;2023-08-12T01:40:54;26.30;55.10
3504;DHT22;1766;53.490;10.174;2023-08-12T01:42:55;26.30;55.20
3504;DHT22;1766;53.490;10.174;2023-08-12T01:44:59;26.30;55.00
3504;DHT22;1766;53.490;10.174;2023-08-12T01:47:02;26.30;55.10
3504;DHT22;1766;53.490;10.174;2023-08-12T01:49:04;26.30;55.20
3504;DHT22;1766;53.490;10.174;2023-08-12T01:51:07;26.40;55.20
3504;DHT22;1766;53.490;10.174;2023-08-12T01:53:09;26.30;55.40
3504;DHT22;1766;53.490;10.174;2023-08-12T01:55:11;26.30;55.20
3504;DHT22;1766;53.490;10.174;2023-08-12T01:57:14;26.30;55.20
3504;DHT22;1766;53.490;10.174;2023-08-12T01:59:16;26.20;55.30
3504;DHT22;1766;53.490;10.174;2023-08-12T02:01:18;26.10;55.20
3504;DHT22;1766;53.490;10.174;2023-08-12T02:03:20;26.20;55.40
3504;DHT22;1766;53.490;10.174;2023-08-12T02:05:22;26.10;55.20
3504;DHT22;1766;53.490;10.174;2023-08-12T02:07:24;26.10;55.30
3504;DHT22;1766;53.490;10.174;2023-08-12T02:09:25;26.10;55.30
3504;DHT22;1766;53.490;10.174;2023-08-12T02:11:28;26.10;55.30
3504;DHT22;1766;53.490;10.174;2023-08-12T02:13:32;26.10;55.80
3504;DHT22;1766;53.490;10.174;2023-08-12T02:15:34;26.10;55.50
3504;DHT22;1766;53.490;10.174;2023-08-12T02:17:38;26.10;55.70
3504;DHT22;1766;53.490;10.174;2023-08-12T02:19:40;26.10;55.80
3504;DHT22;1766;53.490;10.174;2023-08-12T02:21:43;26.10;55.70
3504;DHT22;1766;53.490;10.174;2023-08-12T02:23:45;26.10;55.90
3504;DHT22;1766;53.490;10.174;2023-08-12T02:25:47;26.10;55.70
3504;DHT22;1766;53.490;10.174;2023-08-12T02:27:49;26.00;55.70
3504;DHT22;1766;53.490;10.174;2023-08-12T02:29:52;26.20;55.90
3504;DHT22;1766;53.490;10.174;2023-08-12T02:31:54;26.10;55.90
3504;DHT22;1766;53.490;10.174;2023-08-12T02:33:56;26.10;55.80
3504;DHT22;1766;53.490;10.174;2023-08-12T02:35:58;26.10;55.90
3504;DHT22;1766;53.490;10.174;2023-08-12T02:38:00;26.10;55.90
3504;DHT22;1766;53.490;10.174;2023-08-12T02:40:03;26.10;55.80
3504;DHT22;1766;53.490;10.174;2023-08-12T02:42:06;26.10;56.00
3504;DHT22;1766;53.490;10.174;2023-08-12T02:44:08;26.00;55.90
3504;DHT22;1766;53.490;10.174;2023-08-12T02:46:11;26.00;56.00
3504;DHT22;1766;53.490;10.174;2023-08-12T02:48:13;26.00;56.10
3504;DHT22;1766;53.490;10.174;2023-08-12T02:50:15;25.90;56.30
3504;DHT22;1766;53.490;10.174;2023-08-12T02:52:17;25.90;56.30
3504;DHT22;1766;53.490;10.174;2023-08-12T02:54:19;25.90;56.30
3504;DHT22;1766;53.490;10.174;2023-08-12T02:56:21;25.90;56.40
3504;DHT22;1766;53.490;10.174;2023-08-12T02:58:23;25.90;56.50
3504;DHT22;1766;53.490;10.174;2023-08-12T03:00:25;25.90;56.60
3504;DHT22;1766;53.490;10.174;2023-08-12T03:02:28;25.90;56.60
3504;DHT22;1766;53.490;10.174;2023-08-12T03:04:30;25.90;56.70
3504;DHT22;1766;53.490;10.174;2023-08-12T03:06:31;25.90;56.70
3504;DHT22;1766;53.490;10.174;2023-08-12T03:08:33;25.90;56.60
3504;DHT22;1766;53.490;10.174;2023-08-12T03:10:34;25.90;56.70
3504;DHT22;1766;53.490;10.174;2023-08-12T03:12:37;26.00;56.80
3504;DHT22;1766;53.490;10.174;2023-08-12T03:14:39;25.90;56.80
3504;DHT22;1766;53.490;10.174;2023-08-12T03:16:41;25.90;56.80
3504;DHT22;1766;53.490;10.174;2023-08-12T03:18:44;25.90;57.20
3504;DHT22;1766;53.490;10.174;2023-08-12T03:20:46;25.80;56.90
3504;DHT22;1766;53.490;10.174;2023-08-12T03:22:48;25.80;56.90
3504;DHT22;1766;53.490;10.174;2023-08-12T03:24:50;25.80;57.00
3504;DHT22;1766;53.490;10.174;2023-08-12T03:26:52;25.80;57.00
3504;DHT22;1766;53.490;10.174;2023-08-12T03:28:54;25.80;57.00
3504;DHT22;1766;53.490;10.174;2023-08-12T03:30:55;25.80;57.10
3504;DHT22;1766;53.490;10.174;2023-08-12T03:32:57;25.70;57.10
3504;DHT22;1766;53.490;10.174;2023-08-12T03:35:00;25.80;57.20
3504;DHT22;1766;53.490;10.174;2023-08-12T03:37:02;25.80;57.20
3504;DHT22;1766;53.490;10.174;2023-08-12T03:39:04;25.80;57.30
3504;DHT22;1766;53.490;10.174;2023-08-12T03:41:06;25.80;57.30
3504;DHT22;1766;53.490;10.174;2023-08-12T03:43:08;25.80;57.30
3504;DHT22;1766;53.490;10.174;2023-08-12T03:45:10;25.80;57.40
3504;DHT22;1766;53.490;10.174;2023-08-12T03:47:11;25.80;57.40
3504;DHT22;1766;53.490;10.174;2023-08-12T03:49:13;25.80;57.30
3504;DHT22;1766;53.490;10.174;2023-08-12T03:51:17;25.70;57.40
3504;DHT22;1766;53.490;10.174;2023-08-12T03:53:18;25.70;57.40
3504;DHT22;1766;53.490;10.174;2023-08-12T03:55:20;25.70;57.60
3504;DHT22;1766;53.490;10.174;2023-08-12T03:57:22;25.70;57.60
3504;DHT22;1766;53.490;10.174;2023-08-12T03:59:24;25.60;57.50
3504;DHT22;1766;53.490;10.174;2023-08-12T04:01:26;25.70;57.70
3504;DHT22;1766;53.490;10.174;2023-08-12T04:03:28;25.70;57.80
3504;DHT22;1766;53.490;10.174;2023-08-12T04:05:30;25.70;57.80
3504;DHT22;1766;53.490;10.174;2023-08-12T04:07:33;25.60;57.80
3504;DHT22;1766;53.490;10.174;2023-08-12T04:09:34;25.70;57.90
3504;DHT22;1766;53.490;10.174;2023-08-12T04:11:36;25.70;57.80
3504;DHT22;1766;53.490;10.174;2023-08-12T04:13:37;25.60;57.90
3504;DHT22;1766;53.490;10.174;2023-08-12T04:15:38;25.60;57.90
3504;DHT22;1766;53.490;10.174;2023-08-12T04:17:40;25.60;58.00
3504;DHT22;1766;53.490;10.174;2023-08-12T04:19:42;25.70;58.10
3504;DHT22;1766;53.490;10.174;2023-08-12T04:21:44;25.60;58.00
3504;DHT22;1766;53.490;10.174;2023-08-12T04:23:48;25.60;58.00
3504;DHT22;1766;53.490;10.174;2023-08-12T04:25:52;25.60;58.10
3504;DHT22;1766;53.490;10.174;2023-08-12T04:27:54;25.60;58.30
3504;DHT22;1766;53.490;10.174;2023-08-12T04:29:56;25.60;58.20
3504;DHT22;1766;53.490;10.174;2023-08-12T04:31:58;25.70;58.20
3504;DHT22;1766;53.490;10.174;2023-08-12T04:34:00;25.60;58.20
3504;DHT22;1766;53.490;10.174;2023-08-12T04:36:02;25.60;58.20
3504;DHT22;1766;53.490;10.174;2023-08-12T04:38:04;25.60;58.20
3504;DHT22;1766;53.490;10.174;2023-08-12T04:40:07;25.60;58.20
3504;DHT22;1766;53.490;10.174;2023-08-12T04:42:10;25.60;58.50
3504;DHT22;1766;53.490;10.174;2023-08-12T04:44:12;25.50;58.20
3504;DHT22;1766;53.490;10.174;2023-08-12T04:46:13;25.40;58.20
3504;DHT22;1766;53.490;10.174;2023-08-12T04:48:16;25.50;58.40
3504;DHT22;1766;53.490;10.174;2023-08-12T04:50:17;25.50;58.30
3504;DHT22;1766;53.490;10.174;2023-08-12T04:52:20;25.30;58.20
3504;DHT22;1766;53.490;10.174;2023-08-12T04:54:22;25.50;58.50
3504;DHT22;1766;53.490;10.174;2023-08-12T04:56:24;25.40;58.50
3504;DHT22;1766;53.490;10.174;2023-08-12T04:58:29;25.50;58.60
3504;DHT22;1766;53.490;10.174;2023-08-12T05:00:32;25.50;58.80
3504;DHT22;1766;53.490;10.174;2023-08-12T05:02:33;25.40;58.60
3504;DHT22;1766;53.490;10.174;2023-08-12T05:04:35;25.50;58.80
3504;DHT22;1766;53.490;10.174;2023-08-12T05:06:39;25.50;58.90
3504;DHT22;1766;53.490;10.174;2023-08-12T05:08:40;25.50;58.90
3504;DHT22;1766;53.490;10.174;2023-08-12T05:10:43;25.70;59.10
3504;DHT22;1766;53.490;10.174;2023-08-12T05:12:46;25.50;59.20
3504;DHT22;1766;53.490;10.174;2023-08-12T05:14:50;25.50;59.10
3504;DHT22;1766;53.490;10.174;2023-08-12T05:16:52;25.50;59.00
3504;DHT22;1766;53.490;10.174;2023-08-12T05:18:54;25.60;59.00
3504;DHT22;1766;53.490;10.174;2023-08-12T05:20:56;25.60;59.10
3504;DHT22;1766;53.490;10.174;2023-08-12T05:22:59;25.70;59.30
3504;DHT22;1766;53.490;10.174;2023-08-12T05:25:01;25.70;59.20
3504;DHT22;1766;53.490;10.174;2023-08-12T05:27:03;25.70;59.20
3504;DHT22;1766;53.490;10.174;2023-08-12T05:29:06;25.70;59.20
3504;DHT22;1766;53.490;10.174;2023-08-12T05:31:08;25.70;59.30
3504;DHT22;1766;53.490;10.174;2023-08-12T05:33:10;25.70;59.30
3504;DHT22;1766;53.490;10.174;2023-08-12T05:35:13;25.70;59.30
3504;DHT22;1766;53.490;10.174;2023-08-12T05:37:15;25.70;59.30
3504;DHT22;1766;53.490;10.174;2023-08-12T05:39:17;25.80;59.20
3504;DHT22;1766;53.490;10.174;2023-08-12T05:41:18;25.80;59.30
3504;DHT22;1766;53.490;10.174;2023-08-12T05:43:20;25.90;59.30
3504;DHT22;1766;53.490;10.174;2023-08-12T05:45:23;25.90;59.30
3504;DHT22;1766;53.490;10.174;2023-08-12T05:47:25;25.90;59.30
3504;DHT22;1766;53.490;10.174;2023-08-12T05:49:28;25.90;59.20
3504;DHT22;1766;53.490;10.174;2023-08-12T05:51:30;26.00;59.20
3504;DHT22;1766;53.490;10.174;2023-08-12T05:53:31;26.00;59.00
3504;DHT22;1766;53.490;10.174;2023-08-12T05:55:34;25.90;59.10
3504;DHT22;1766;53.490;10.174;2023-08-12T05:57:36;26.10;59.30
3504;DHT22;1766;53.490;10.174;2023-08-12T05:59:38;26.00;59.60
3504;DHT22;1766;53.490;10.174;2023-08-12T06:01:40;26.10;59.20
3504;DHT22;1766;53.490;10.174;2023-08-12T06:03:42;26.10;59.30
3504;DHT22;1766;53.490;10.174;2023-08-12T06:05:46;26.10;59.20
3504;DHT22;1766;53.490;10.174;2023-08-12T06:07:48;26.20;59.40
3504;DHT22;1766;53.490;10.174;2023-08-12T06:09:50;26.10;59.10
3504;DHT22;1766;53.490;10.174;2023-08-12T06:11:52;26.20;59.10
3504;DHT22;1766;53.490;10.174;2023-08-12T06:13:54;26.20;59.30
3504;DHT22;1766;53.490;10.174;2023-08-12T06:15:59;26.20;59.30
3504;DHT22;1766;53.490;10.174;2023-08-12T06:18:03;26.30;59.40
3504;DHT22;1766;53.490;10.174;2023-08-12T06:20:06;26.40;59.40
3504;DHT22;1766;53.490;10.174;2023-08-12T06:22:08;26.30;59.50
3504;DHT22;1766;53.490;10.174;2023-08-12T06:24:10;26.30;59.40
3504;DHT22;1766;53.490;10.174;2023-08-12T06:26:12;26.40;59.60
3504;DHT22;1766;53.490;10.174;2023-08-12T06:28:14;26.40;59.60
3504;DHT22;1766;53.490;10.174;2023-08-12T06:30:17;26.30;59.70
3504;DHT22;1766;53.490;10.174;2023-08-12T06:32:19;26.30;59.70
3504;DHT22;1766;53.490;10.174;2023-08-12T06:34:22;26.20;59.80
3504;DHT22;1766;53.490;10.174;2023-08-12T06:36:23;26.20;59.90
3504;DHT22;1766;53.490;10.174;2023-08-12T06:38:25;26.20;60.40
3504;DHT22;1766;53.490;10.174;2023-08-12T06:40:27;26.20;60.60
3504;DHT22;1766;53.490;10.174;2023-08-12T06:42:28;26.20;60.70
3504;DHT22;1766;53.490;10.174;2023-08-12T06:44:31;26.20;60.90
3504;DHT22;1766;53.490;10.174;2023-08-12T06:46:33;26.20;60.90
3504;DHT22;1766;53.490;10.174;2023-08-12T06:48:34;26.30;61.00
3504;DHT22;1766;53.490;10.174;2023-08-12T06:50:37;26.20;61.00
3504;DHT22;1766;53.490;10.174;2023-08-12T06:52:38;26.30;61.20
3504;DHT22;1766;53.490;10.174;2023-08-12T06:54:40;26.30;61.20
3504;DHT22;1766;53.490;10.174;2023-08-12T06:56:43;26.40;61.30
3504;DHT22;1766;53.490;10.174;2023-08-12T06:58:44;26.40;61.20
3504;DHT22;1766;53.490;10.174;2023-08-12T07:00:46;26.40;61.50
3504;DHT22;1766;53.490;10.174;2023-08-12T07:02:48;26.40;61.70
3504;DHT22;1766;53.490;10.174;2023-08-12T07:04:50;26.50;62.10
3504;DHT22;1766;53.490;10.174;2023-08-12T07:06:53;26.50;62.10
3504;DHT22;1766;53.490;10.174;2023-08-12T07:08:55;26.50;62.30
3504;DHT22;1766;53.490;10.174;2023-08-12T07:10:57;26.50;62.30
3504;DHT22;1766;53.490;10.174;2023-08-12T07:12:59;26.50;62.40
3504;DHT22;1766;53.490;10.174;2023-08-12T07:15:00;26.50;62.60
3504;DHT22;1766;53.490;10.174;2023-08-12T07:17:02;26.40;62.50
3504;DHT22;1766;53.490;10.174;2023-08-12T07:19:04;26.40;62.90
3504;DHT22;1766;53.490;10.174;2023-08-12T07:21:06;26.50;63.10
3504;DHT22;1766;53.490;10.174;2023-08-12T07:23:09;26.40;63.20
3504;DHT22;1766;53.490;10.174;2023-08-12T07:25:11;26.50;63.50
3504;DHT22;1766;53.490;10.174;2023-08-12T07:27:13;26.60;63.70
3504;DHT22;1766;53.490;10.174;2023-08-12T07:29:15;26.60;63.70
3504;DHT22;1766;53.490;10.174;2023-08-12T07:31:17;26.60;63.80
3504;DHT22;1766;53.490;10.174;2023-08-12T07:33:20;26.60;63.90
3504;DHT22;1766;53.490;10.174;2023-08-12T07:35:22;26.60;64.10
3504;DHT22;1766;53.490;10.174;2023-08-12T07:37:24;26.60;63.90
3504;DHT22;1766;53.490;10.174;2023-08-12T07:39:27;26.70;64.20
3504;DHT22;1766;53.490;10.174;2023-08-12T07:41:29;26.70;64.20
3504;DHT22;1766;53.490;10.174;2023-08-12T07:43:31;26.70;64.20
3504;DHT22;1766;53.490;10.174;2023-08-12T07:45:33;26.90;64.20
3504;DHT22;1766;53.490;10.174;2023-08-12T07:47:35;27.00;64.20
3504;DHT22;1766;53.490;10.174;2023-08-12T07:49:37;27.10;63.90
3504;DHT22;1766;53.490;10.174;2023-08-12T07:51:39;27.10;63.80
3504;DHT22;1766;53.490;10.174;2023-08-12T07:53:41;27.20;63.70
3504;DHT22;1766;53.490;10.174;2023-08-12T07:55:45;27.30;63.60
3504;DHT22;1766;53.490;10.174;2023-08-12T07:57:47;27.30;63.30
3504;DHT22;1766;53.490;10.174;2023-08-12T07:59:49;27.40;64.00
3504;DHT22;1766;53.490;10.174;2023-08-12T08:01:51;27.40;63.70
3504;DHT22;1766;53.490;10.174;2023-08-12T08:03:53;27.40;63.50
3504;DHT22;1766;53.490;10.174;2023-08-12T08:34:22;20.90;99.90
3504;DHT22;1766;53.490;10.174;2023-08-12T08:36:24;21.50;99.90
3504;DHT22;1766;53.490;10.174;2023-08-12T08:38:26;22.90;98.50
3504;DHT22;1766;53.490;10.174;2023-08-12T08:40:28;24.20;95.20
3504;DHT22;1766;53.490;10.174;2023-08-12T08:42:31;25.30;92.80
3504;DHT22;1766;53.490;10.174;2023-08-12T08:44:33;26.00;91.10
3504;DHT22;1766;53.490;10.174;2023-08-12T08:46:36;26.50;89.80
3504;DHT22;1766;53.490;10.174;2023-08-12T08:48:38;26.90;87.80
3504;DHT22;1766;53.490;10.174;2023-08-12T08:50:41;27.10;86.20
3504;DHT22;1766;53.490;10.174;2023-08-12T08:52:46;27.20;85.10
3504;DHT22;1766;53.490;10.174;2023-08-12T08:54:49;27.30;84.30
3504;DHT22;1766;53.490;10.174;2023-08-12T08:56:50;27.30;84.00
3504;DHT22;1766;53.490;10.174;2023-08-12T08:58:52;27.40;83.90
3504;DHT22;1766;53.490;10.174;2023-08-12T09:00:53;27.40;83.70
3504;DHT22;1766;53.490;10.174;2023-08-12T09:02:57;27.50;83.50
3504;DHT22;1766;53.490;10.174;2023-08-12T09:04:59;27.50;83.50
3504;DHT22;1766;53.490;10.174;2023-08-12T09:07:02;27.50;83.40
3504;DHT22;1766;53.490;10.174;2023-08-12T09:09:06;27.60;83.30
3504;DHT22;1766;53.490;10.174;2023-08-12T09:11:12;27.60;83.10
3504;DHT22;1766;53.490;10.174;2023-08-12T09:13:14;27.70;83.00
3504;DHT22;1766;53.490;10.174;2023-08-12T09:15:18;27.70;82.70
3504;DHT22;1766;53.490;10.174;2023-08-12T09:17:20;27.70;82.60
3504;DHT22;1766;53.490;10.174;2023-08-12T09:19:22;27.70;82.70
3504;DHT22;1766;53.490;10.174;2023-08-12T09:21:24;27.70;82.70
3504;DHT22;1766;53.490;10.174;2023-08-12T09:23:34;27.70;82.70
3504;DHT22;1766;53.490;10.174;2023-08-12T09:25:41;27.80;82.80
3504;DHT22;1766;53.490;10.174;2023-08-12T09:27:45;27.80;82.60
3504;DHT22;1766;53.490;10.174;2023-08-12T09:29:47;27.90;82.50
3504;DHT22;1766;53.490;10.174;2023-08-12T09:31:49;27.90;82.20
3504;DHT22;1766;53.490;10.174;2023-08-12T09:33:51;28.00;82.20
3504;DHT22;1766;53.490;10.174;2023-08-12T09:35:54;28.00;82.10
3504;DHT22;1766;53.490;10.174;2023-08-12T09:37:57;28.00;81.90
3504;DHT22;1766;53.490;10.174;2023-08-12T09:40:01;28.10;81.40
3504;DHT22;1766;53.490;10.174;2023-08-12T09:42:05;28.20;81.10
3504;DHT22;1766;53.490;10.174;2023-08-12T09:44:08;28.10;81.00
3504;DHT22;1766;53.490;10.174;2023-08-12T09:46:11;28.10;80.90
3504;DHT22;1766;53.490;10.174;2023-08-12T09:48:13;28.10;81.10
3504;DHT22;1766;53.490;10.174;2023-08-12T09:50:18;28.00;81.00
3504;DHT22;1766;53.490;10.174;2023-08-12T09:52:22;28.00;81.00
3504;DHT22;1766;53.490;10.174;2023-08-12T09:54:26;28.10;80.90
3504;DHT22;1766;53.490;10.174;2023-08-12T09:56:35;28.00;81.30
3504;DHT22;1766;53.490;10.174;2023-08-12T09:58:39;27.90;81.50
3504;DHT22;1766;53.490;10.174;2023-08-12T10:00:44;27.90;81.90
3504;DHT22;1766;53.490;10.174;2023-08-12T10:02:48;27.90;82.00
3504;DHT22;1766;53.490;10.174;2023-08-12T10:04:54;28.00;82.00
3504;DHT22;1766;53.490;10.174;2023-08-12T10:06:58;28.00;82.10
3504;DHT22;1766;53.490;10.174;2023-08-12T10:09:00;28.10;81.90
3504;DHT22;1766;53.490;10.174;2023-08-12T10:11:04;28.20;81.90
3504;DHT22;1766;53.490;10.174;2023-08-12T10:13:07;28.20;81.40
3504;DHT22;1766;53.490;10.174;2023-08-12T10:15:10;28.20;81.70
3504;DHT22;1766;53.490;10.174;2023-08-12T10:17:15;28.20;81.20
3504;DHT22;1766;53.490;10.174;2023-08-12T10:19:17;28.20;81.30
3504;DHT22;1766;53.490;10.174;2023-08-12T10:21:22;28.20;81.30
3504;DHT22;1766;53.490;10.174;2023-08-12T10:23:25;28.20;81.20
3504;DHT22;1766;53.490;10.174;2023-08-12T10:25:31;28.10;81.20
3504;DHT22;1766;53.490;10.174;2023-08-12T10:27:35;28.10;81.50
3504;DHT22;1766;53.490;10.174;2023-08-12T10:29:38;28.20;81.60
3504;DHT22;1766;53.490;10.174;2023-08-12T10:31:40;28.20;81.40
3504;DHT22;1766;53.490;10.174;2023-08-12T10:33:45;28.20;82.00
3504;DHT22;1766;53.490;10.174;2023-08-12T10:35:50;28.20;82.10
3504;DHT22;1766;53.490;10.174;2023-08-12T10:37:52;28.20;82.20
3504;DHT22;1766;53.490;10.174;2023-08-12T10:39:54;28.30;82.40
3504;DHT22;1766;53.490;10.174;2023-08-12T10:41:57;28.30;82.30
3504;DHT22;1766;53.490;10.174;2023-08-12T10:44:00;28.40;82.40
3504;DHT22;1766;53.490;10.174;2023-08-12T10:46:06;28.40;82.30
3504;DHT22;1766;53.490;10.174;2023-08-12T10:48:24;28.40;82.10
3504;DHT22;1766;53.490;10.174;2023-08-12T10:50:26;28.40;82.20
3504;DHT22;1766;53.490;10.174;2023-08-12T10:52:30;28.40;82.20
3504;DHT22;1766;53.490;10.174;2023-08-12T10:54:32;28.40;82.10
3504;DHT22;1766;53.490;10.174;2023-08-12T10:57:03;28.40;81.80
3504;DHT22;1766;53.490;10.174;2023-08-12T10:59:08;28.40;81.80
3504;DHT22;1766;53.490;10.174;2023-08-12T11:01:16;28.40;81.70
3504;DHT22;1766;53.490;10.174;2023-08-12T11:03:19;28.40;81.90
3504;DHT22;1766;53.490;10.174;2023-08-12T11:05:21;28.40;81.10
3504;DHT22;1766;53.490;10.174;2023-08-12T11:07:29;28.30;82.40
3504;DHT22;1766;53.490;10.174;2023-08-12T11:09:35;28.40;82.80
3504;DHT22;1766;53.490;10.174;2023-08-12T11:11:39;28.40;83.10
3504;DHT22;1766;53.490;10.174;2023-08-12T11:13:46;28.50;83.70
3504;DHT22;1766;53.490;10.174;2023-08-12T11:15:49;28.60;84.00
3504;DHT22;1766;53.490;10.174;2023-08-12T11:17:52;28.70;84.10
3504;DHT22;1766;53.490;10.174;2023-08-12T11:21:30;28.90;83.50
3504;DHT22;1766;53.490;10.174;2023-08-12T11:23:32;28.90;83.60
3504;DHT22;1766;53.490;10.174;2023-08-12T11:25:36;28.90;83.30
3504;DHT22;1766;53.490;10.174;2023-08-12T11:27:41;29.00;83.10
3504;DHT22;1766;53.490;10.174;2023-08-12T11:29:43;28.90;83.50
3504;DHT22;1766;53.490;10.174;2023-08-12T11:31:44;29.00;82.80
3504;DHT22;1766;53.490;10.174;2023-08-12T11:33:46;29.00;82.40
3504;DHT22;1766;53.490;10.174;2023-08-12T11:35:48;29.00;81.80
3504;DHT22;1766;53.490;10.174;2023-08-12T11:37:52;29.00;81.40
3504;DHT22;1766;53.490;10.174;2023-08-12T11:39:56;28.90;80.90
3504;DHT22;1766;53.490;10.174;2023-08-12T11:41:57;28.90;80.50
3504;DHT22;1766;53.490;10.174;2023-08-12T11:43:59;28.80;80.00
3504;DHT22;1766;53.490;10.174;2023-08-12T11:46:01;28.80;79.80
3504;DHT22;1766;53.490;10.174;2023-08-12T11:48:03;28.80;79.40
3504;DHT22;1766;53.490;10.174;2023-08-12T11:50:07;28.70;79.30
3504;DHT22;1766;53.490;10.174;2023-08-12T11:52:10;28.70;79.20
3504;DHT22;1766;53.490;10.174;2023-08-12T11:54:14;28.60;79.00
3504;DHT22;1766;53.490;10.174;2023-08-12T11:56:16;28.60;79.20
3504;DHT22;1766;53.490;10.174;2023-08-12T11:58:20;28.60;79.20
3504;DHT22;1766;53.490;10.174;2023-08-12T12:00:25;28.60;79.80
3504;DHT22;1766;53.490;10.174;2023-08-12T12:02:27;28.60;79.20
3504;DHT22;1766;53.490;10.174;2023-08-12T12:04:31;28.60;78.90
3504;DHT22;1766;53.490;10.174;2023-08-12T12:06:35;28.60;78.90
3504;DHT22;1766;53.490;10.174;2023-08-12T12:08:38;28.60;78.80
3504;DHT22;1766;53.490;10.174;2023-08-12T12:10:42;28.50;78.70
3504;DHT22;1766;53.490;10.174;2023-08-12T12:12:44;28.50;78.70
3504;DHT22;1766;53.490;10.174;2023-08-12T12:14:47;28.50;78.60
3504;DHT22;1766;53.490;10.174;2023-08-12T12:16:49;28.40;78.50
3504;DHT22;1766;53.490;10.174;2023-08-12T12:18:57;28.40;78.70
3504;DHT22;1766;53.490;10.174;2023-08-12T12:20:59;28.50;79.00
3504;DHT22;1766;53.490;10.174;2023-08-12T12:23:05;28.50;78.90
3504;DHT22;1766;53.490;10.174;2023-08-12T12:25:10;28.60;79.10
3504;DHT22;1766;53.490;10.174;2023-08-12T12:27:14;28.60;79.10
3504;DHT22;1766;53.490;10.174;2023-08-12T12:29:16;28.60;79.10
3504;DHT22;1766;53.490;10.174;2023-08-12T12:31:18;28.60;79.00
3504;DHT22;1766;53.490;10.174;2023-08-12T12:33:19;28.70;79.30
3504;DHT22;1766;53.490;10.174;2023-08-12T12:35:21;28.70;79.60
3504;DHT22;1766;53.490;10.174;2023-08-12T12:37:23;28.70;79.40
3504;DHT22;1766;53.490;10.174;2023-08-12T12:39:25;28.80;79.40
3504;DHT22;1766;53.490;10.174;2023-08-12T12:41:27;28.80;79.70
3504;DHT22;1766;53.490;10.174;2023-08-12T12:43:30;28.90;80.20
3504;DHT22;1766;53.490;10.174;2023-08-12T12:45:32;28.90;80.70
3504;DHT22;1766;53.490;10.174;2023-08-12T12:47:34;29.00;81.00
3504;DHT22;1766;53.490;10.174;2023-08-12T12:49:36;29.00;81.20
3504;DHT22;1766;53.490;10.174;2023-08-12T12:51:38;29.10;81.00
3504;DHT22;1766;53.490;10.174;2023-08-12T12:53:40;29.40;81.30
3504;DHT22;1766;53.490;10.174;2023-08-12T12:55:41;29.20;81.40
3504;DHT22;1766;53.490;10.174;2023-08-12T12:57:44;29.30;81.80
3504;DHT22;1766;53.490;10.174;2023-08-12T12:59:47;29.40;82.10
3504;DHT22;1766;53.490;10.174;2023-08-12T13:01:50;29.50;82.40
3504;DHT22;1766;53.490;10.174;2023-08-12T13:03:51;29.50;82.10
3504;DHT22;1766;53.490;10.174;2023-08-12T13:05:54;29.50;82.10
3504;DHT22;1766;53.490;10.174;2023-08-12T13:07:55;29.50;81.90
3504;DHT22;1766;53.490;10.174;2023-08-12T13:09:57;29.50;81.60
3504;DHT22;1766;53.490;10.174;2023-08-12T13:11:59;29.50;81.60
3504;DHT22;1766;53.490;10.174;2023-08-12T13:14:01;29.50;81.90
3504;DHT22;1766;53.490;10.174;2023-08-12T13:16:04;29.50;82.30
3504;DHT22;1766;53.490;10.174;2023-08-12T13:18:06;29.50;82.00
3504;DHT22;1766;53.490;10.174;2023-08-12T13:20:10;29.50;81.80
3504;DHT22;1766;53.490;10.174;2023-08-12T13:22:12;29.40;81.50
3504;DHT22;1766;53.490;10.174;2023-08-12T13:24:14;29.30;81.20
3504;DHT22;1766;53.490;10.174;2023-08-12T13:26:15;29.30;81.50
3504;DHT22;1766;53.490;10.174;2023-08-12T13:28:18;29.20;81.50
3504;DHT22;1766;53.490;10.174;2023-08-12T13:30:20;29.20;81.40
3504;DHT22;1766;53.490;10.174;2023-08-12T13:32:22;29.10;81.10
3504;DHT22;1766;53.490;10.174;2023-08-12T13:34:24;29.00;80.90
3504;DHT22;1766;53.490;10.174;2023-08-12T13:36:26;28.90;81.00
3504;DHT22;1766;53.490;10.174;2023-08-12T13:38:28;28.90;81.00
3504;DHT22;1766;53.490;10.174;2023-08-12T13:40:30;28.80;81.20
3504;DHT22;1766;53.490;10.174;2023-08-12T13:42:32;28.70;81.50
3504;DHT22;1766;53.490;10.174;2023-08-12T13:44:34;28.70;81.60
3504;DHT22;1766;53.490;10.174;2023-08-12T13:46:35;28.60;81.80
3504;DHT22;1766;53.490;10.174;2023-08-12T13:48:39;28.40;81.60
3504;DHT22;1766;53.490;10.174;2023-08-12T13:50:40;28.30;82.80
3504;DHT22;1766;53.490;10.174;2023-08-12T13:52:42;28.10;83.20